Schedule Details

Flight Number: CPX241
Departure: Huntsville International Airport (KHSV) at N/A
Arrival: Miami International Airport (KMIA) at N/A
Route: RMG ATL YANTI Q89 PRMUS OMN HILEY7


Current Weather Information
KHSV 152053Z 18004KT 10SM -RA OVC020 15/14 A2980 RMK AO2 SLP088 P0001 60003 T01500139 56019 $
KMIA 152053Z 10006KT 10SM BKN034 OVC250 25/19 A2993 RMK AO2 SLP134 T02500189 56013

Route Map